Time;durP1;ratioP1;P1;durP2;ratioP2;P2;SDS_P1;SDS_P2;PMS_P1;PMS_P2;Temp;Humidity;BMP_temperature;BMP_pressure;BME280_temperature;BME280_humidity;BME280_pressure;Samples;Min_cycle;Max_cycle;Signal;HPM_P1;HPM_P2
2022/03/13 00:01:04;;;;;;;38.88;16.73;;;;;;;-2.42;53.44;101942.63;1718050;82;26265;-74
2022/03/13 00:03:28;;;;;;;44.53;18.67;;;;;;;-2.40;53.64;101947.38;1718225;82;26380;-74
2022/03/13 00:05:55;;;;;;;45.17;20.82;;;;;;;-2.39;53.88;101939.88;1721041;82;27487;-77
2022/03/13 00:08:27;;;;;;;47.27;21.02;;;;;;;-2.41;54.33;101931.22;1712620;82;26171;-75
2022/03/13 00:11:07;;;;;;;46.42;20.25;;;;;;;-2.41;54.33;101931.22;1719063;82;26300;-74
2022/03/13 00:13:37;;;;;;;45.95;20.72;;;;;;;-2.43;54.32;101921.72;1711826;82;25827;-74
2022/03/13 00:16:09;;;;;;;42.00;18.40;;;;;;;-2.46;54.00;101927.12;1726872;81;25887;-75
2022/03/13 00:18:44;;;;;;;43.78;19.20;;;;;;;-2.46;54.23;101932.38;1707661;83;27442;-76
2022/03/13 00:21:10;;;;;;;34.65;17.45;;;;;;;-2.49;53.93;101922.01;1712473;82;26019;-74
2022/03/13 00:23:36;;;;;;;37.70;16.55;;;;;;;-2.53;53.61;101920.00;1723668;82;25764;-75
2022/03/13 00:26:03;;;;;;;34.43;15.85;;;;;;;-2.58;53.54;101927.22;1729977;82;26477;-76
2022/03/13 00:28:30;;;;;;;37.03;17.87;;;;;;;-2.61;53.49;101935.22;1722552;82;26494;-75
2022/03/13 00:30:59;;;;;;;34.20;15.63;;;;;;;-2.67;53.88;101940.75;1692616;83;27556;-75
2022/03/13 00:33:25;;;;;;;36.85;17.40;;;;;;;-2.70;53.93;101942.67;1659157;85;26020;-75
2022/03/13 00:35:52;;;;;;;43.23;18.77;;;;;;;-2.71;53.95;101947.52;1673205;84;25827;-76
2022/03/13 00:38:22;;;;;;;46.30;19.55;;;;;;;-2.75;54.01;101936.77;1718754;82;26218;-74
2022/03/13 00:40:51;;;;;;;41.33;18.05;;;;;;;-2.78;53.95;101936.94;1719556;82;25973;-74
2022/03/13 00:43:17;;;;;;;42.73;17.87;;;;;;;-2.84;53.90;101941.12;1728935;82;27465;-75
2022/03/13 00:45:43;;;;;;;42.90;19.12;;;;;;;-2.87;53.94;101942.13;1693378;83;26062;-74
2022/03/13 00:48:09;;;;;;;50.17;20.92;;;;;;;-2.91;53.90;101938.40;1651593;85;26529;-74
2022/03/13 00:50:35;;;;;;;50.45;22.52;;;;;;;-2.94;54.05;101936.77;1669507;85;25797;-75
2022/03/13 00:53:02;;;;;;;49.23;21.25;;;;;;;-2.95;53.96;101938.98;1680756;84;26092;-75
2022/03/13 00:55:28;;;;;;;39.65;19.12;;;;;;;-2.95;54.03;101941.59;1680039;84;27498;-75
2022/03/13 00:57:54;;;;;;;43.13;18.55;;;;;;;-2.95;54.02;101944.22;1681128;84;25881;-75
2022/03/13 01:00:21;;;;;;;45.50;20.95;;;;;;;-2.95;54.08;101945.53;1680454;84;25859;-75
2022/03/13 01:02:48;;;;;;;45.52;21.52;;;;;;;-2.93;54.35;101937.63;1680826;83;25852;-75
2022/03/13 01:05:25;;;;;;;52.93;22.02;;;;;;;-2.91;54.38;101940.57;1682284;84;25826;-75
2022/03/13 01:07:54;;;;;;;56.68;24.60;;;;;;;-2.93;54.48;101938.93;1681014;84;28365;-75
2022/03/13 01:10:21;;;;;;;58.73;24.50;;;;;;;-2.98;54.41;101935.20;1681561;84;26104;-75
2022/03/13 01:12:50;;;;;;;68.47;25.88;;;;;;;-3.01;54.56;101932.70;1679900;84;26533;-74
2022/03/13 01:15:18;;;;;;;66.85;27.95;;;;;;;-3.06;54.72;101932.53;1681515;84;26344;-74
2022/03/13 01:17:44;;;;;;;65.35;28.65;;;;;;;-3.08;54.92;101931.30;1681497;84;25946;-75
2022/03/13 01:20:21;;;;;;;75.22;30.77;;;;;;;-3.13;55.15;101933.25;1681491;84;28286;-74
2022/03/13 01:22:50;;;;;;;93.05;33.45;;;;;;;-3.12;55.39;101936.73;1672870;84;25903;-75
2022/03/13 01:25:17;;;;;;;89.75;31.23;;;;;;;-3.14;55.82;101926.30;1661204;85;25928;-75
2022/03/13 01:27:45;;;;;;;64.37;26.80;;;;;;;-3.12;56.17;101934.11;1648150;85;26283;-75
2022/03/13 01:30:14;;;;;;;76.60;27.73;;;;;;;-3.14;56.34;101929.78;1664952;85;25861;-74
2022/03/13 01:32:42;;;;;;;71.55;27.62;;;;;;;-3.16;56.55;101932.92;1664220;85;27464;-75
2022/03/13 01:35:09;;;;;;;53.95;25.77;;;;;;;-3.18;56.56;101927.35;1652152;85;25911;-75
2022/03/13 01:37:40;;;;;;;77.70;30.17;;;;;;;-3.20;56.54;101923.50;1689706;84;25772;-75
2022/03/13 01:40:12;;;;;;;75.17;29.40;;;;;;;-3.21;56.42;101932.27;1666800;84;26281;-75
2022/03/13 01:42:44;;;;;;;66.45;26.70;;;;;;;-3.21;56.66;101927.02;1669413;84;25949;-74
2022/03/13 01:45:15;;;;;;;65.15;25.17;;;;;;;-3.24;57.08;101923.70;1675192;84;28564;-75
2022/03/13 01:47:43;;;;;;;54.98;24.60;;;;;;;-3.27;57.35;101924.67;1658572;84;25877;-75
2022/03/13 01:50:12;;;;;;;70.55;26.77;;;;;;;-3.28;57.37;101922.99;1692993;84;26684;-74
2022/03/13 01:52:46;;;;;;;63.05;25.48;;;;;;;-3.29;57.70;101927.83;1723546;82;25740;-75
2022/03/13 01:55:13;;;;;;;58.85;25.60;;;;;;;-3.30;57.82;101926.59;1721443;82;25985;-75
2022/03/13 01:57:40;;;;;;;67.25;29.48;;;;;;;-3.33;57.71;101924.09;1693265;84;27446;-74
2022/03/13 02:00:10;;;;;;;69.95;28.32;;;;;;;-3.39;57.73;101925.22;1688377;84;25837;-74
2022/03/13 02:02:46;;;;;;;76.53;26.70;;;;;;;-3.42;57.75;101927.13;1723653;82;25729;-75
2022/03/13 02:05:29;;;;;;;68.37;27.52;;;;;;;-3.47;57.90;101924.70;1681402;84;25853;-75
2022/03/13 02:07:57;;;;;;;81.02;29.82;;;;;;;-3.50;58.06;101921.34;1666227;84;25723;-76
2022/03/13 02:10:23;;;;;;;81.55;29.20;;;;;;;-3.52;58.25;101920.56;1688996;84;27432;-75
2022/03/13 02:12:49;;;;;;;73.05;28.07;;;;;;;-3.53;58.62;101915.77;1668730;85;25971;-75
2022/03/13 02:15:16;;;;;;;78.57;32.55;;;;;;;-3.54;58.94;101917.16;1662705;85;26280;-75
2022/03/13 02:17:43;;;;;;;91.95;31.97;;;;;;;-3.56;59.08;101920.30;1686239;84;25729;-75
2022/03/13 02:20:18;;;;;;;65.03;26.87;;;;;;;-3.62;59.15;101921.42;1678557;84;25809;-75
2022/03/13 02:22:47;;;;;;;81.42;27.60;;;;;;;-3.65;59.22;101918.92;1682342;84;27094;-75
2022/03/13 02:25:19;;;;;;;75.45;27.32;;;;;;;-3.68;59.37;101922.14;1676324;84;25823;-74
2022/03/13 02:27:46;;;;;;;72.75;30.70;;;;;;;-3.71;59.41;101920.94;1655703;84;25834;-75
2022/03/13 02:30:13;;;;;;;71.57;28.77;;;;;;;-3.73;59.23;101920.16;1662384;85;26028;-75
2022/03/13 02:32:40;;;;;;;71.17;28.17;;;;;;;-3.75;59.12;101925.47;1664812;84;25866;-75
2022/03/13 02:35:07;;;;;;;84.32;31.62;;;;;;;-3.77;59.08;101920.75;1675589;84;27552;-74
2022/03/13 02:37:40;;;;;;;74.03;28.65;;;;;;;-3.78;59.17;101924.72;1724297;82;25705;-74
2022/03/13 02:40:20;;;;;;;77.50;29.55;;;;;;;-3.78;59.49;101925.58;1723712;82;25810;-74
2022/03/13 02:42:46;;;;;;;64.43;28.07;;;;;;;-3.80;59.39;101923.94;1692967;84;26375;-75
2022/03/13 02:45:32;;;;;;;69.97;29.82;;;;;;;-3.82;59.35;101920.53;1692804;83;25741;-75
2022/03/13 02:48:00;;;;;;;59.93;27.48;;;;;;;-3.85;59.33;101920.67;1675451;84;28329;-75
2022/03/13 02:50:27;;;;;;;69.58;27.67;;;;;;;-3.92;59.26;101915.70;1659158;85;26144;-75
2022/03/13 02:52:53;;;;;;;73.40;30.65;;;;;;;-3.92;59.38;101920.08;1673610;84;26528;-74
2022/03/13 02:55:20;;;;;;;78.02;33.88;;;;;;;-3.93;59.30;101913.98;1677365;84;25905;-76
2022/03/13 02:57:46;;;;;;;77.85;33.65;;;;;;;-3.93;59.35;101911.81;1674986;84;25786;-75
2022/03/13 03:00:15;;;;;;;78.55;31.25;;;;;;;-3.93;59.45;101911.36;1725772;82;27411;-76
2022/03/13 03:02:42;;;;;;;80.90;33.35;;;;;;;-3.94;59.42;101910.98;1720964;82;25838;-74
2022/03/13 03:05:09;;;;;;;76.85;32.42;;;;;;;-3.93;59.59;101911.36;1686255;84;25811;-74
2022/03/13 03:07:37;;;;;;;75.15;31.50;;;;;;;-3.94;59.75;101912.30;1677864;84;25508;-73
2022/03/13 03:10:05;;;;;;;72.92;32.28;;;;;;;-3.93;59.93;101911.36;1677295;84;25279;-74
2022/03/13 03:12:34;;;;;;;74.85;31.90;;;;;;;-3.93;60.00;101914.44;1681273;84;28327;-76
2022/03/13 03:15:00;;;;;;;72.37;29.95;;;;;;;-3.91;60.34;101915.22;1678043;84;26562;-75
2022/03/13 03:17:27;;;;;;;70.17;30.32;;;;;;;-3.90;60.48;101911.70;1677816;84;25815;-75
2022/03/13 03:19:55;;;;;;;69.92;30.95;;;;;;;-3.93;60.55;101912.67;1677440;84;25806;-75
2022/03/13 03:22:22;;;;;;;65.65;27.85;;;;;;;-3.98;60.41;101905.94;1673986;84;26456;-75
2022/03/13 03:24:49;;;;;;;70.78;28.42;;;;;;;-4.02;60.44;101909.59;1677610;84;27454;-76
2022/03/13 03:27:17;;;;;;;66.00;28.12;;;;;;;-4.04;60.58;101906.16;1675361;84;25773;-75
2022/03/13 03:29:43;;;;;;;65.87;28.17;;;;;;;-4.04;61.11;101907.47;1689552;84;25708;-74
2022/03/13 03:32:09;;;;;;;63.98;26.82;;;;;;;-4.06;61.23;101907.98;1690189;84;26320;-74
2022/03/13 03:34:35;;;;;;;65.37;26.82;;;;;;;-4.03;61.47;101908.73;1681347;84;25738;-75
2022/03/13 03:37:03;;;;;;;66.65;28.05;;;;;;;-4.03;61.64;101910.50;1677749;84;28240;-75
2022/03/13 03:39:32;;;;;;;67.05;28.77;;;;;;;-4.06;61.81;101906.23;1664271;84;25989;-76
2022/03/13 03:42:02;;;;;;;56.70;26.33;;;;;;;-4.07;61.91;101907.61;1673913;84;25921;-75
2022/03/13 03:44:28;;;;;;;61.80;25.90;;;;;;;-4.10;62.10;101903.80;1710644;82;25805;-75
2022/03/13 03:46:55;;;;;;;65.32;28.47;;;;;;;-4.12;62.17;101910.86;1716605;82;26455;-75
2022/03/13 03:49:21;;;;;;;62.33;26.02;;;;;;;-4.14;62.36;101915.31;1730931;82;27538;-74
2022/03/13 03:51:49;;;;;;;57.55;25.77;;;;;;;-4.15;62.55;101911.83;1711781;82;26480;-74
2022/03/13 03:54:15;;;;;;;53.17;24.65;;;;;;;-4.15;62.60;101907.08;1726658;82;25720;-75
2022/03/13 03:56:42;;;;;;;54.95;24.72;;;;;;;-4.12;62.59;101906.94;1717081;82;25990;-74
2022/03/13 03:59:09;;;;;;;55.28;23.67;;;;;;;-4.12;62.70;101905.63;1725913;82;25879;-74
2022/03/13 04:01:39;;;;;;;49.42;23.83;;;;;;;-4.12;62.80;101903.88;1725051;82;27461;-76
2022/03/13 04:04:07;;;;;;;53.85;25.65;;;;;;;-4.11;63.08;101904.28;1722883;82;25703;-74
2022/03/13 04:06:37;;;;;;;57.88;24.65;;;;;;;-4.11;63.11;101911.27;1693751;83;25906;-75
2022/03/13 04:09:07;;;;;;;59.90;25.50;;;;;;;-4.13;63.01;101903.94;1659312;85;26255;-74
2022/03/13 04:11:34;;;;;;;62.03;26.87;;;;;;;-4.13;62.89;101910.00;1660983;85;26201;-74
2022/03/13 04:14:01;;;;;;;63.65;27.00;;;;;;;-4.11;63.07;101910.83;1676858;84;27459;-75
2022/03/13 04:16:27;;;;;;;65.03;26.77;;;;;;;-4.11;63.09;101904.73;1721372;82;25905;-75
2022/03/13 04:18:54;;;;;;;58.58;24.72;;;;;;;-4.13;62.99;101905.25;1728392;82;25801;-74
2022/03/13 04:21:24;;;;;;;56.18;24.72;;;;;;;-4.13;62.84;101907.39;1693024;84;25939;-75
2022/03/13 04:23:52;;;;;;;63.15;25.88;;;;;;;-4.11;62.95;101909.97;1665480;84;30577;-75
2022/03/13 04:26:18;;;;;;;50.52;23.65;;;;;;;-4.12;63.03;101910.86;1707806;83;28469;-75
2022/03/13 04:28:45;;;;;;;54.42;24.90;;;;;;;-4.13;63.23;101906.08;1728052;82;26521;-74
2022/03/13 04:31:12;;;;;;;52.43;23.77;;;;;;;-4.11;63.34;101901.66;1719292;82;25720;-74
2022/03/13 04:33:40;;;;;;;55.00;24.87;;;;;;;-4.09;63.39;101895.05;1707740;83;25850;-75
2022/03/13 04:36:10;;;;;;;51.05;24.35;;;;;;;-4.06;63.48;101902.76;1716327;82;26055;-74
2022/03/13 04:38:34;;;;;;;55.10;24.40;;;;;;;-4.05;63.57;101894.87;1707898;83;27540;-75
2022/03/13 04:41:00;;;;;;;53.25;24.47;;;;;;;-4.02;63.39;101897.34;1719177;82;25897;-75
2022/03/13 04:43:27;;;;;;;47.95;24.47;;;;;;;-3.99;63.49;101893.75;1723481;82;25822;-75
2022/03/13 04:45:53;;;;;;;56.92;23.65;;;;;;;-3.99;63.51;101895.92;1693072;83;25913;-74
2022/03/13 04:48:20;;;;;;;57.78;27.95;;;;;;;-3.97;63.44;101897.16;1652262;85;26256;-75
2022/03/13 04:50:47;;;;;;;49.67;24.00;;;;;;;-3.98;63.75;101895.47;1677218;84;27495;-74
2022/03/13 04:53:14;;;;;;;66.40;25.85;;;;;;;-4.01;63.64;101906.91;1679893;84;25900;-75
2022/03/13 04:55:41;;;;;;;56.88;23.57;;;;;;;-4.02;63.76;101903.88;1679797;84;26452;-75
2022/03/13 04:58:10;;;;;;;50.48;23.32;;;;;;;-4.04;63.99;101893.94;1674736;84;25818;-74
2022/03/13 05:00:39;;;;;;;51.95;24.35;;;;;;;-4.04;64.12;101890.02;1681553;84;25979;-75
2022/03/13 05:03:06;;;;;;;61.02;25.08;;;;;;;-4.04;64.06;101895.70;1679687;84;27481;-75
2022/03/13 05:05:36;;;;;;;54.23;24.35;;;;;;;-4.05;64.14;101900.55;1682131;84;25770;-74
2022/03/13 05:08:14;;;;;;;46.80;23.00;;;;;;;-4.02;64.35;101893.41;1682225;84;25326;-75
2022/03/13 05:10:36;;;;;;;53.78;24.47;;;;;;;-4.01;64.32;101896.89;1675301;84;26334;-75
2022/03/13 05:13:05;;;;;;;52.40;24.07;;;;;;;-3.99;64.65;101897.67;1681408;84;25773;-75
2022/03/13 05:15:32;;;;;;;51.00;23.67;;;;;;;-3.96;64.87;101896.26;1666989;84;27551;-74
2022/03/13 05:17:59;;;;;;;46.75;21.60;;;;;;;-3.94;64.84;101902.28;1683730;84;25823;-75
2022/03/13 05:20:25;;;;;;;57.27;24.82;;;;;;;-3.92;65.24;101905.23;1688444;83;26136;-75
2022/03/13 05:22:51;;;;;;;51.90;23.67;;;;;;;-3.87;65.47;101913.34;1686303;84;25937;-74
2022/03/13 05:25:17;;;;;;;55.58;24.02;;;;;;;-3.88;65.54;101912.48;1686237;84;25968;-74
2022/03/13 05:27:44;;;;;;;54.13;24.25;;;;;;;-3.88;65.54;101910.32;1683574;84;28267;-75
2022/03/13 05:30:11;;;;;;;48.75;24.55;;;;;;;-3.89;65.53;101914.70;1688551;84;26491;-74
2022/03/13 05:32:38;;;;;;;47.75;24.92;;;;;;;-3.88;65.61;101912.48;1666767;84;26290;-75
2022/03/13 05:35:05;;;;;;;51.88;24.37;;;;;;;-3.87;65.69;101912.86;1662586;85;26496;-75
2022/03/13 05:37:31;;;;;;;53.68;23.62;;;;;;;-3.84;65.71;101914.06;1664711;84;25716;-75
2022/03/13 05:39:58;;;;;;;46.30;22.20;;;;;;;-3.82;65.75;101913.98;1669303;84;27518;-75
2022/03/13 05:42:25;;;;;;;49.67;24.37;;;;;;;-3.80;65.84;101918.70;1676408;84;26440;-75
2022/03/13 05:44:54;;;;;;;49.10;23.57;;;;;;;-3.77;65.84;101916.83;1670362;84;25831;-75
2022/03/13 05:47:21;;;;;;;49.50;24.60;;;;;;;-3.72;66.20;101920.09;1671115;84;25999;-74
2022/03/13 05:49:48;;;;;;;55.88;25.48;;;;;;;-3.66;66.29;101917.69;1662774;84;25813;-74
2022/03/13 05:52:15;;;;;;;50.50;24.72;;;;;;;-3.60;66.27;101923.52;1670664;84;27453;-75
2022/03/13 05:54:43;;;;;;;54.10;26.68;;;;;;;-3.55;65.88;101918.09;1670099;84;25838;-75
2022/03/13 05:57:11;;;;;;;54.25;26.50;;;;;;;-3.51;65.95;101921.83;1671516;84;25877;-75
2022/03/13 05:59:38;;;;;;;60.10;27.10;;;;;;;-3.47;65.98;101925.16;1672873;84;25745;-75
2022/03/13 06:02:06;;;;;;;54.70;26.87;;;;;;;-3.44;66.23;101927.17;1665628;85;25881;-75
2022/03/13 06:04:37;;;;;;;51.90;24.92;;;;;;;-3.37;66.21;101922.07;1689620;84;27467;-75
2022/03/13 06:07:04;;;;;;;60.23;26.82;;;;;;;-3.31;66.56;101930.11;1661797;84;31037;-75
2022/03/13 06:09:32;;;;;;;57.50;26.45;;;;;;;-3.30;66.34;101930.07;1678798;84;25846;-75
2022/03/13 06:11:59;;;;;;;54.67;25.60;;;;;;;-3.24;66.20;101932.87;1661937;85;26532;-75
2022/03/13 06:14:26;;;;;;;52.43;26.60;;;;;;;-3.19;66.44;101934.36;1669145;84;25958;-74
2022/03/13 06:16:53;;;;;;;61.80;24.95;;;;;;;-3.19;66.59;101940.08;1645214;85;28014;-75
2022/03/13 06:19:19;;;;;;;65.37;27.32;;;;;;;-3.17;66.70;101943.03;1674749;84;25912;-75
2022/03/13 06:21:47;;;;;;;50.70;24.50;;;;;;;-3.12;66.82;101947.22;1660665;84;25323;-75
2022/03/13 06:24:19;;;;;;;52.13;24.40;;;;;;;-3.08;67.07;101942.23;1663961;84;26432;-75
2022/03/13 06:26:46;;;;;;;53.02;24.72;;;;;;;-3.01;67.59;101946.27;1684396;84;25782;-75
2022/03/13 06:29:15;;;;;;;51.40;25.97;;;;;;;-2.94;67.88;101951.63;1652572;85;27544;-75
2022/03/13 06:31:41;;;;;;;59.35;27.65;;;;;;;-2.88;68.13;101952.66;1677667;84;25774;-75
2022/03/13 06:34:08;;;;;;;68.07;31.20;;;;;;;-2.83;68.33;101953.32;1668753;84;25772;-75
2022/03/13 06:36:39;;;;;;;69.42;30.45;;;;;;;-2.76;68.36;101958.20;1661627;85;26415;-75
2022/03/13 06:39:03;;;;;;;61.70;29.05;;;;;;;-2.68;68.45;101954.80;1686308;84;25858;-76
2022/03/13 06:41:31;;;;;;;71.35;34.78;;;;;;;-2.57;68.57;101955.17;1665198;85;27531;-76
2022/03/13 06:43:57;;;;;;;74.70;34.73;;;;;;;-2.46;68.24;101950.25;1688619;83;25821;-76
2022/03/13 06:46:23;;;;;;;75.62;35.13;;;;;;;-2.35;67.68;101950.61;1685928;83;25968;-75
2022/03/13 06:48:49;;;;;;;76.97;34.18;;;;;;;-2.22;67.28;101952.19;1680426;83;25846;-75
2022/03/13 06:51:16;;;;;;;79.70;36.53;;;;;;;-2.10;66.79;101946.83;1682712;83;25820;-74
2022/03/13 06:53:42;;;;;;;74.85;34.08;;;;;;;-1.97;66.57;101951.43;1683093;84;27469;-75
2022/03/13 06:56:08;;;;;;;77.97;35.00;;;;;;;-1.86;66.57;101945.16;1674712;84;25866;-75
2022/03/13 06:58:34;;;;;;;71.90;34.63;;;;;;;-1.64;66.39;101935.31;1667084;84;26446;-76
2022/03/13 07:01:01;;;;;;;74.80;37.20;;;;;;;-1.64;66.39;101935.31;1669306;84;25709;-75
2022/03/13 07:03:27;;;;;;;71.72;34.55;;;;;;;-1.45;66.39;101943.59;1668961;84;25766;-76
2022/03/13 07:05:53;;;;;;;71.82;33.28;;;;;;;-1.20;66.10;101946.66;1666686;84;28260;-76
2022/03/13 07:08:20;;;;;;;79.58;34.03;;;;;;;-1.13;66.30;101930.94;1666823;85;25917;-75
2022/03/13 07:10:46;;;;;;;78.47;36.48;;;;;;;-1.13;66.30;101930.94;1665841;85;25776;-76
2022/03/13 07:13:14;;;;;;;69.42;35.25;;;;;;;-0.95;66.17;101950.57;1665322;85;26728;-75
2022/03/13 07:15:41;;;;;;;71.20;33.38;;;;;;;-0.81;65.60;101944.10;1668308;85;25930;-75
2022/03/13 07:18:07;;;;;;;77.97;35.17;;;;;;;-0.65;64.87;101947.23;1652615;86;27701;-75
2022/03/13 07:20:33;;;;;;;74.50;34.85;;;;;;;-0.52;64.55;101941.23;1652230;85;26054;-75
2022/03/13 07:22:59;;;;;;;79.58;37.45;;;;;;;-0.38;63.92;101943.94;1654351;85;25751;-75
2022/03/13 07:25:26;;;;;;;76.85;35.73;;;;;;;-0.25;63.67;101947.60;1670891;84;26259;-76
2022/03/13 07:27:52;;;;;;;64.15;31.85;;;;;;;-0.12;63.25;101946.45;1655428;85;26528;-75
2022/03/13 07:30:18;;;;;;;71.55;33.00;;;;;;;0.02;62.59;101945.69;1668359;84;28282;-75
2022/03/13 07:32:45;;;;;;;65.90;31.85;;;;;;;0.16;61.49;101949.23;1667243;85;25890;-76
2022/03/13 07:35:13;;;;;;;56.98;30.15;;;;;;;0.31;60.54;101947.03;1674238;84;26442;-75
2022/03/13 07:37:40;;;;;;;66.75;32.67;;;;;;;0.48;60.34;101952.17;1681801;84;26302;-75
2022/03/13 07:40:09;;;;;;;62.33;29.27;;;;;;;0.64;59.98;101956.09;1679351;84;25970;-75
2022/03/13 07:42:35;;;;;;;56.77;30.45;;;;;;;0.79;59.25;101954.69;1681856;84;28282;-76
2022/03/13 07:45:01;;;;;;;70.08;31.00;;;;;;;0.93;58.72;101955.66;1681788;84;25815;-75
2022/03/13 07:47:30;;;;;;;62.23;32.03;;;;;;;1.06;58.48;101952.20;1680666;84;25870;-75
2022/03/13 07:49:57;;;;;;;63.33;33.30;;;;;;;1.20;58.29;101949.55;1679671;84;25904;-76
2022/03/13 07:52:24;;;;;;;58.50;30.70;;;;;;;1.37;58.50;101961.70;1681025;84;25978;-76
2022/03/13 07:54:51;;;;;;;68.22;35.38;;;;;;;1.48;57.24;101950.86;1681084;84;27467;-76
2022/03/13 07:57:17;;;;;;;63.80;34.88;;;;;;;1.62;56.65;101943.88;1680047;84;25900;-75
2022/03/13 07:59:43;;;;;;;65.45;35.25;;;;;;;1.74;56.39;101944.41;1681100;84;25786;-75
2022/03/13 08:02:10;;;;;;;55.00;31.30;;;;;;;1.87;55.86;101946.17;1679899;84;26178;-75
2022/03/13 08:04:36;;;;;;;61.68;32.03;;;;;;;2.02;54.84;101952.27;1674500;84;25776;-75
2022/03/13 08:07:03;;;;;;;67.65;33.90;;;;;;;2.16;54.94;101955.70;1681936;84;28363;-76
2022/03/13 08:09:29;;;;;;;69.45;35.38;;;;;;;2.28;54.42;101951.42;1680288;84;25791;-76
2022/03/13 08:11:55;;;;;;;74.62;37.78;;;;;;;2.41;54.18;101951.45;1682125;84;25662;-76
2022/03/13 08:14:21;;;;;;;76.70;39.10;;;;;;;2.52;53.46;101951.13;1681922;84;25900;-75
2022/03/13 08:16:49;;;;;;;75.10;39.50;;;;;;;2.63;53.06;101946.44;1678789;84;26550;-75
2022/03/13 08:19:15;;;;;;;61.20;35.43;;;;;;;2.72;52.85;101945.33;1681432;84;27401;-76
2022/03/13 08:21:41;;;;;;;74.75;39.78;;;;;;;2.85;52.61;101948.84;1680934;84;26420;-75
2022/03/13 08:24:08;;;;;;;73.00;37.38;;;;;;;2.95;52.05;101955.19;1679481;84;25766;-76
2022/03/13 08:26:38;;;;;;;73.83;38.85;;;;;;;3.06;52.65;101955.77;1681706;84;26547;-75
2022/03/13 08:29:06;;;;;;;80.80;40.67;;;;;;;3.18;53.35;101958.06;1682024;84;25953;-75
2022/03/13 08:31:34;;;;;;;81.97;43.02;;;;;;;3.26;53.25;101955.72;1675038;84;27486;-77
2022/03/13 08:34:01;;;;;;;81.55;41.98;;;;;;;3.37;53.50;101958.00;1681966;84;26029;-75
2022/03/13 08:36:27;;;;;;;78.87;40.70;;;;;;;3.49;53.29;101961.57;1679200;84;25604;-76
2022/03/13 08:38:54;;;;;;;73.50;39.03;;;;;;;3.58;53.46;101952.98;1669472;84;26497;-76
2022/03/13 08:41:20;;;;;;;72.27;38.08;;;;;;;3.66;52.79;101950.16;1684502;84;25788;-75
2022/03/13 08:43:46;;;;;;;76.80;40.00;;;;;;;3.75;53.59;101952.16;1658622;85;27539;-75
2022/03/13 08:46:13;;;;;;;71.92;40.40;;;;;;;3.83;53.46;101955.09;1668212;84;25741;-76
2022/03/13 08:48:40;;;;;;;74.17;42.25;;;;;;;3.90;53.76;101953.70;1684702;84;25901;-75
2022/03/13 08:51:07;;;;;;;79.05;40.23;;;;;;;3.99;53.73;101953.98;1666829;84;25863;-75
2022/03/13 08:53:34;;;;;;;78.87;40.95;;;;;;;4.05;53.75;101958.36;1664184;84;25604;-76
2022/03/13 08:56:00;;;;;;;81.70;43.00;;;;;;;4.13;53.77;101964.45;1675435;84;26946;-75
2022/03/13 08:58:26;;;;;;;77.05;41.70;;;;;;;4.22;53.57;101957.97;1659857;85;25822;-76
2022/03/13 09:00:52;;;;;;;75.05;41.88;;;;;;;4.31;52.38;101961.28;1689528;84;25855;-76
2022/03/13 09:03:19;;;;;;;71.77;40.65;;;;;;;4.39;52.09;101963.34;1678533;84;26481;-76
2022/03/13 09:05:45;;;;;;;78.30;43.28;;;;;;;4.47;52.12;101966.30;1681635;84;25771;-75
2022/03/13 09:08:13;;;;;;;71.30;40.10;;;;;;;4.56;52.06;101968.25;1682089;84;27442;-76
2022/03/13 09:10:39;;;;;;;80.30;40.65;;;;;;;4.64;52.14;101968.03;1681515;84;25971;-75
2022/03/13 09:13:05;;;;;;;80.35;43.10;;;;;;;4.72;51.95;101967.47;1652291;84;25843;-77
2022/03/13 09:15:33;;;;;;;70.32;41.02;;;;;;;4.80;50.96;101968.20;1664884;84;25295;-77
2022/03/13 09:18:02;;;;;;;81.17;45.63;;;;;;;4.91;51.30;101966.44;1673973;84;25932;-79
2022/03/13 09:20:28;;;;;;;78.50;43.83;;;;;;;4.99;51.25;101965.36;1669722;84;27493;-79
2022/03/13 09:22:55;;;;;;;84.92;45.60;;;;;;;5.13;50.90;101968.30;1664962;84;25310;-78
2022/03/13 09:25:21;;;;;;;69.87;38.88;;;;;;;5.23;50.56;101967.94;1671129;84;26096;-79
2022/03/13 09:30:59;;;;;;;69.37;38.15;;;;;;;5.41;49.77;101971.80;1618080;84;25837;-80
2022/03/13 09:33:27;;;;;;;69.05;38.02;;;;;;;5.48;49.55;101971.22;1617735;87;27066;-77
2022/03/13 09:35:54;;;;;;;74.10;36.88;;;;;;;5.54;48.75;101967.72;1650077;85;25982;-77
2022/03/13 09:38:20;;;;;;;63.98;36.42;;;;;;;5.59;48.81;101973.50;1650842;86;25884;-77
2022/03/13 09:40:46;;;;;;;67.85;33.60;;;;;;;5.67;48.49;101973.25;1647658;86;25878;-77
2022/03/13 09:43:12;;;;;;;62.30;32.65;;;;;;;5.76;46.73;101973.00;1649462;86;26436;-78
2022/03/13 09:45:38;;;;;;;51.90;29.98;;;;;;;5.87;47.88;101969.90;1652383;86;28375;-78
2022/03/13 09:48:10;;;;;;;56.63;30.15;;;;;;;5.98;47.79;101961.05;1653008;86;25896;-76
2022/03/13 09:50:39;;;;;;;65.25;33.48;;;;;;;6.06;47.86;101962.59;1649395;86;25873;-76
2022/03/13 09:53:06;;;;;;;52.50;30.00;;;;;;;6.12;47.80;101965.61;1661011;82;26782;-76
2022/03/13 09:55:32;;;;;;;54.15;29.65;;;;;;;6.22;47.00;101957.22;1666194;85;25790;-76
2022/03/13 09:57:58;;;;;;;51.58;28.60;;;;;;;6.31;46.67;101953.47;1662859;84;27484;-76
2022/03/13 10:00:25;;;;;;;56.77;29.98;;;;;;;6.38;46.86;101951.49;1662060;84;26563;-76
2022/03/13 10:02:53;;;;;;;55.25;29.55;;;;;;;6.46;47.15;101950.88;1652995;85;25321;-77
2022/03/13 10:05:22;;;;;;;49.65;28.67;;;;;;;6.52;46.17;101957.84;1671068;84;25917;-76
2022/03/13 10:08:00;;;;;;;54.88;30.35;;;;;;;6.59;45.90;101952.84;1652203;84;25881;-76
2022/03/13 10:10:34;;;;;;;50.80;29.65;;;;;;;6.67;46.42;101949.91;1650315;85;27460;-76
2022/03/13 10:13:01;;;;;;;46.00;28.20;;;;;;;6.72;45.49;101949.04;1614389;87;25838;-76
2022/03/13 10:15:33;;;;;;;51.85;28.73;;;;;;;6.78;46.11;101952.98;1640840;86;25839;-76
2022/03/13 10:18:06;;;;;;;45.63;26.75;;;;;;;6.82;45.76;101941.95;1640536;87;25939;-76
2022/03/13 10:20:32;;;;;;;47.98;29.27;;;;;;;6.87;45.95;101949.55;1641228;87;25311;-77
2022/03/13 10:23:11;;;;;;;62.80;30.37;;;;;;;6.92;45.48;101948.21;1640859;87;28553;-75
2022/03/13 10:25:39;;;;;;;48.85;28.50;;;;;;;6.99;45.22;101946.69;1639461;87;25735;-76
2022/03/13 10:28:31;;;;;;;50.10;28.52;;;;;;;7.06;44.38;101942.20;1641426;85;26518;-76
2022/03/13 10:31:06;;;;;;;49.13;28.40;;;;;;;7.12;44.76;101946.48;1633570;87;25853;-76
2022/03/13 10:33:47;;;;;;;49.63;28.10;;;;;;;7.18;44.37;101943.80;1642846;86;25930;-76
2022/03/13 10:36:19;;;;;;;46.20;27.37;;;;;;;7.20;44.60;101949.35;1614565;88;28425;-76
2022/03/13 10:38:49;;;;;;;54.20;28.83;;;;;;;7.28;44.47;101944.20;1618012;88;25816;-75
2022/03/13 10:41:16;;;;;;;45.95;27.87;;;;;;;7.32;44.40;101944.77;1614456;88;25931;-76
2022/03/13 10:43:54;;;;;;;43.50;26.57;;;;;;;7.38;44.12;101941.56;1618347;87;26244;-76
2022/03/13 10:46:31;;;;;;;45.48;26.65;;;;;;;7.44;44.08;101949.05;1615260;88;26007;-76
2022/03/13 10:49:01;;;;;;;46.63;28.32;;;;;;;7.44;44.14;101943.20;1615855;87;27500;-76
2022/03/13 10:51:41;;;;;;;48.48;28.12;;;;;;;7.47;43.67;101936.28;1619953;87;25817;-76
2022/03/13 10:54:08;;;;;;;39.08;24.37;;;;;;;7.50;44.16;101939.18;1641786;87;25740;-76
2022/03/13 10:56:34;;;;;;;70.50;32.35;;;;;;;7.59;43.71;101933.05;1618484;85;26550;-77
2022/03/13 10:59:17;;;;;;;48.20;27.07;;;;;;;7.64;43.71;101926.31;1650312;85;25336;-77
2022/03/13 11:01:44;;;;;;;46.20;24.95;;;;;;;7.71;43.62;101927.47;1641845;85;28392;-75
2022/03/13 11:04:15;;;;;;;43.42;24.10;;;;;;;7.80;43.54;101927.14;1598821;87;25920;-75
2022/03/13 11:06:39;;;;;;;40.83;22.22;;;;;;;7.86;43.68;101925.73;1627678;87;26218;-76
2022/03/13 11:09:06;;;;;;;99.15;42.73;;;;;;;7.92;43.71;101914.52;1627262;87;25966;-76
2022/03/13 11:11:34;;;;;;;85.35;38.95;;;;;;;8.00;43.96;101915.52;1629882;87;26610;-77
2022/03/13 11:14:01;;;;;;;42.93;24.92;;;;;;;8.07;43.23;101915.32;1627744;87;27550;-76
2022/03/13 11:16:30;;;;;;;37.33;21.62;;;;;;;8.10;42.69;101911.05;1626831;87;25895;-76
2022/03/13 11:19:05;;;;;;;40.15;23.83;;;;;;;8.17;42.06;101909.48;1625264;87;26548;-77